sensor_id;sensor_type;location;lat;lon;timestamp;temperature;humidity
45060;DHT22;30799;49.060;9.312;2022-09-09T00:00:49;23.70;56.30
45060;DHT22;30799;49.060;9.312;2022-09-09T00:03:26;23.70;56.30
45060;DHT22;30799;49.060;9.312;2022-09-09T00:06:05;23.70;56.30
45060;DHT22;30799;49.060;9.312;2022-09-09T00:09:00;23.70;56.30
45060;DHT22;30799;49.060;9.312;2022-09-09T00:11:43;23.70;56.30
45060;DHT22;30799;49.060;9.312;2022-09-09T00:16:55;23.70;56.30
45060;DHT22;30799;49.060;9.312;2022-09-09T00:22:19;23.70;56.30
45060;DHT22;30799;49.060;9.312;2022-09-09T00:24:47;23.70;56.30
45060;DHT22;30799;49.060;9.312;2022-09-09T00:30:22;23.70;56.30
45060;DHT22;30799;49.060;9.312;2022-09-09T00:32:59;23.70;56.30
45060;DHT22;30799;49.060;9.312;2022-09-09T00:38:16;23.70;56.20
45060;DHT22;30799;49.060;9.312;2022-09-09T00:41:21;23.70;56.20
45060;DHT22;30799;49.060;9.312;2022-09-09T00:44:15;23.70;56.20
45060;DHT22;30799;49.060;9.312;2022-09-09T00:47:12;23.70;56.20
45060;DHT22;30799;49.060;9.312;2022-09-09T00:52:47;23.70;56.20
45060;DHT22;30799;49.060;9.312;2022-09-09T00:55:33;23.70;56.20
45060;DHT22;30799;49.060;9.312;2022-09-09T00:58:00;23.70;56.20
45060;DHT22;30799;49.060;9.312;2022-09-09T01:00:30;23.70;56.20
45060;DHT22;30799;49.060;9.312;2022-09-09T01:09:04;23.70;56.20
45060;DHT22;30799;49.060;9.312;2022-09-09T01:20:15;23.70;56.10
45060;DHT22;30799;49.060;9.312;2022-09-09T01:28:16;23.70;56.10
45060;DHT22;30799;49.060;9.312;2022-09-09T01:30:43;23.70;56.10
45060;DHT22;30799;49.060;9.312;2022-09-09T01:33:15;23.70;56.10
45060;DHT22;30799;49.060;9.312;2022-09-09T01:36:00;23.70;56.10
45060;DHT22;30799;49.060;9.312;2022-09-09T01:38:28;23.70;56.10
45060;DHT22;30799;49.060;9.312;2022-09-09T01:40:55;23.70;56.10
45060;DHT22;30799;49.060;9.312;2022-09-09T01:43:23;23.70;56.10
45060;DHT22;30799;49.060;9.312;2022-09-09T01:45:53;23.70;56.10
45060;DHT22;30799;49.060;9.312;2022-09-09T01:48:21;23.70;56.10
45060;DHT22;30799;49.060;9.312;2022-09-09T01:50:49;23.70;56.10
45060;DHT22;30799;49.060;9.312;2022-09-09T01:53:17;23.70;56.10
45060;DHT22;30799;49.060;9.312;2022-09-09T01:55:56;23.70;56.10
45060;DHT22;30799;49.060;9.312;2022-09-09T02:01:17;23.70;56.00
45060;DHT22;30799;49.060;9.312;2022-09-09T02:03:51;23.70;56.00
45060;DHT22;30799;49.060;9.312;2022-09-09T02:06:35;23.70;56.10
45060;DHT22;30799;49.060;9.312;2022-09-09T02:09:06;23.70;56.00
45060;DHT22;30799;49.060;9.312;2022-09-09T02:11:34;23.70;56.00
45060;DHT22;30799;49.060;9.312;2022-09-09T02:14:05;23.70;56.00
45060;DHT22;30799;49.060;9.312;2022-09-09T02:16:46;23.70;56.00
45060;DHT22;30799;49.060;9.312;2022-09-09T02:19:51;23.70;56.00
45060;DHT22;30799;49.060;9.312;2022-09-09T02:22:20;23.70;56.00
45060;DHT22;30799;49.060;9.312;2022-09-09T02:24:49;23.70;56.00
45060;DHT22;30799;49.060;9.312;2022-09-09T02:27:22;23.70;56.00
45060;DHT22;30799;49.060;9.312;2022-09-09T02:29:50;23.70;56.00
45060;DHT22;30799;49.060;9.312;2022-09-09T02:32:21;23.70;56.10
45060;DHT22;30799;49.060;9.312;2022-09-09T02:35:23;23.70;56.00
45060;DHT22;30799;49.060;9.312;2022-09-09T02:37:44;23.70;56.00
45060;DHT22;30799;49.060;9.312;2022-09-09T02:40:13;23.70;56.00
45060;DHT22;30799;49.060;9.312;2022-09-09T02:42:43;23.70;56.00
45060;DHT22;30799;49.060;9.312;2022-09-09T02:45:12;23.70;56.00
45060;DHT22;30799;49.060;9.312;2022-09-09T02:48:03;23.70;56.00
45060;DHT22;30799;49.060;9.312;2022-09-09T02:50:49;23.70;56.00
45060;DHT22;30799;49.060;9.312;2022-09-09T02:53:53;23.70;56.00
45060;DHT22;30799;49.060;9.312;2022-09-09T02:56:18;23.70;56.00
45060;DHT22;30799;49.060;9.312;2022-09-09T02:58:46;23.70;56.00
45060;DHT22;30799;49.060;9.312;2022-09-09T03:01:12;23.70;56.00
45060;DHT22;30799;49.060;9.312;2022-09-09T03:03:40;23.70;56.00
45060;DHT22;30799;49.060;9.312;2022-09-09T03:06:07;23.70;56.00
45060;DHT22;30799;49.060;9.312;2022-09-09T03:08:34;23.70;56.00
45060;DHT22;30799;49.060;9.312;2022-09-09T03:11:01;23.70;56.00
45060;DHT22;30799;49.060;9.312;2022-09-09T03:13:28;23.70;56.00
45060;DHT22;30799;49.060;9.312;2022-09-09T03:15:54;23.60;55.90
45060;DHT22;30799;49.060;9.312;2022-09-09T03:18:21;23.70;56.00
45060;DHT22;30799;49.060;9.312;2022-09-09T03:20:48;23.70;56.00
45060;DHT22;30799;49.060;9.312;2022-09-09T03:23:17;23.60;55.90
45060;DHT22;30799;49.060;9.312;2022-09-09T03:25:48;23.60;56.50
45060;DHT22;30799;49.060;9.312;2022-09-09T03:28:15;23.70;56.00
45060;DHT22;30799;49.060;9.312;2022-09-09T03:30:42;23.70;56.00
45060;DHT22;30799;49.060;9.312;2022-09-09T03:33:08;23.60;55.90
45060;DHT22;30799;49.060;9.312;2022-09-09T03:35:35;23.70;56.00
45060;DHT22;30799;49.060;9.312;2022-09-09T03:38:02;23.70;56.00
45060;DHT22;30799;49.060;9.312;2022-09-09T03:40:29;23.70;56.00
45060;DHT22;30799;49.060;9.312;2022-09-09T03:42:55;23.60;56.00
45060;DHT22;30799;49.060;9.312;2022-09-09T03:45:22;23.70;56.00
45060;DHT22;30799;49.060;9.312;2022-09-09T03:47:48;23.70;56.00
45060;DHT22;30799;49.060;9.312;2022-09-09T03:50:16;23.70;56.00
45060;DHT22;30799;49.060;9.312;2022-09-09T03:52:44;23.70;56.00
45060;DHT22;30799;49.060;9.312;2022-09-09T03:55:12;23.70;56.00
45060;DHT22;30799;49.060;9.312;2022-09-09T03:57:39;23.60;55.90
45060;DHT22;30799;49.060;9.312;2022-09-09T04:00:07;23.70;56.00
45060;DHT22;30799;49.060;9.312;2022-09-09T04:02:34;23.60;55.90
45060;DHT22;30799;49.060;9.312;2022-09-09T04:05:01;23.70;56.00
45060;DHT22;30799;49.060;9.312;2022-09-09T04:07:27;23.60;55.90
45060;DHT22;30799;49.060;9.312;2022-09-09T04:09:54;23.60;55.90
45060;DHT22;30799;49.060;9.312;2022-09-09T04:12:21;23.70;56.00
45060;DHT22;30799;49.060;9.312;2022-09-09T04:14:48;23.70;56.00
45060;DHT22;30799;49.060;9.312;2022-09-09T04:17:15;23.60;55.90
45060;DHT22;30799;49.060;9.312;2022-09-09T04:19:42;23.60;55.90
45060;DHT22;30799;49.060;9.312;2022-09-09T04:22:08;23.60;55.90
45060;DHT22;30799;49.060;9.312;2022-09-09T04:24:35;23.60;55.90
45060;DHT22;30799;49.060;9.312;2022-09-09T04:27:02;23.60;55.90
45060;DHT22;30799;49.060;9.312;2022-09-09T04:29:29;23.60;55.90
45060;DHT22;30799;49.060;9.312;2022-09-09T04:31:55;23.60;56.00
45060;DHT22;30799;49.060;9.312;2022-09-09T04:34:22;23.60;55.90
45060;DHT22;30799;49.060;9.312;2022-09-09T04:36:49;23.60;55.90
45060;DHT22;30799;49.060;9.312;2022-09-09T04:39:15;23.60;55.90
45060;DHT22;30799;49.060;9.312;2022-09-09T04:41:42;23.60;55.90
45060;DHT22;30799;49.060;9.312;2022-09-09T04:44:09;23.60;55.90
45060;DHT22;30799;49.060;9.312;2022-09-09T04:46:36;23.60;55.90
45060;DHT22;30799;49.060;9.312;2022-09-09T04:49:03;23.60;55.90
45060;DHT22;30799;49.060;9.312;2022-09-09T04:51:29;23.60;55.90
45060;DHT22;30799;49.060;9.312;2022-09-09T04:53:57;23.60;55.90
45060;DHT22;30799;49.060;9.312;2022-09-09T04:56:24;23.60;55.90
45060;DHT22;30799;49.060;9.312;2022-09-09T04:58:53;23.60;55.90
45060;DHT22;30799;49.060;9.312;2022-09-09T05:01:21;23.60;55.90
45060;DHT22;30799;49.060;9.312;2022-09-09T05:03:50;23.60;55.90
45060;DHT22;30799;49.060;9.312;2022-09-09T05:06:20;23.70;56.00
45060;DHT22;30799;49.060;9.312;2022-09-09T05:08:47;23.60;55.90
45060;DHT22;30799;49.060;9.312;2022-09-09T05:11:16;23.60;55.90
45060;DHT22;30799;49.060;9.312;2022-09-09T05:13:44;23.60;55.90
45060;DHT22;30799;49.060;9.312;2022-09-09T05:16:12;23.60;55.90
45060;DHT22;30799;49.060;9.312;2022-09-09T05:18:39;23.60;56.00
45060;DHT22;30799;49.060;9.312;2022-09-09T05:21:07;23.60;56.00
45060;DHT22;30799;49.060;9.312;2022-09-09T05:23:34;23.60;55.90
45060;DHT22;30799;49.060;9.312;2022-09-09T05:26:02;23.60;55.90
45060;DHT22;30799;49.060;9.312;2022-09-09T05:28:29;23.60;55.90
45060;DHT22;30799;49.060;9.312;2022-09-09T05:31:02;23.60;55.90
45060;DHT22;30799;49.060;9.312;2022-09-09T05:33:31;23.60;55.90
45060;DHT22;30799;49.060;9.312;2022-09-09T05:36:02;23.60;56.00
45060;DHT22;30799;49.060;9.312;2022-09-09T05:38:29;23.60;56.00
45060;DHT22;30799;49.060;9.312;2022-09-09T05:40:56;23.60;56.00
45060;DHT22;30799;49.060;9.312;2022-09-09T05:43:24;23.60;56.00
45060;DHT22;30799;49.060;9.312;2022-09-09T05:46:03;23.60;56.00
45060;DHT22;30799;49.060;9.312;2022-09-09T05:48:32;23.60;56.00
45060;DHT22;30799;49.060;9.312;2022-09-09T05:50:59;23.60;56.00
45060;DHT22;30799;49.060;9.312;2022-09-09T05:53:27;23.60;56.00
45060;DHT22;30799;49.060;9.312;2022-09-09T05:58:34;23.60;56.00
45060;DHT22;30799;49.060;9.312;2022-09-09T06:01:42;23.60;56.00
45060;DHT22;30799;49.060;9.312;2022-09-09T06:04:08;23.60;56.00
45060;DHT22;30799;49.060;9.312;2022-09-09T06:06:38;23.60;56.00
45060;DHT22;30799;49.060;9.312;2022-09-09T06:09:08;23.60;56.00
45060;DHT22;30799;49.060;9.312;2022-09-09T06:11:38;23.60;56.00
45060;DHT22;30799;49.060;9.312;2022-09-09T06:14:05;23.60;56.00
45060;DHT22;30799;49.060;9.312;2022-09-09T06:16:32;23.60;56.00
45060;DHT22;30799;49.060;9.312;2022-09-09T06:19:00;23.60;56.00
45060;DHT22;30799;49.060;9.312;2022-09-09T06:21:31;23.60;56.00
45060;DHT22;30799;49.060;9.312;2022-09-09T06:23:59;23.60;56.00
45060;DHT22;30799;49.060;9.312;2022-09-09T06:26:32;23.60;56.00
45060;DHT22;30799;49.060;9.312;2022-09-09T06:29:00;23.60;56.00
45060;DHT22;30799;49.060;9.312;2022-09-09T06:31:29;23.60;56.00
45060;DHT22;30799;49.060;9.312;2022-09-09T06:34:01;23.60;56.10
45060;DHT22;30799;49.060;9.312;2022-09-09T06:36:35;23.60;56.00
45060;DHT22;30799;49.060;9.312;2022-09-09T06:39:04;23.60;56.10
45060;DHT22;30799;49.060;9.312;2022-09-09T06:41:31;23.60;56.10
45060;DHT22;30799;49.060;9.312;2022-09-09T06:43:59;23.60;56.00
45060;DHT22;30799;49.060;9.312;2022-09-09T06:46:28;23.60;56.10
45060;DHT22;30799;49.060;9.312;2022-09-09T06:48:57;23.60;56.10
45060;DHT22;30799;49.060;9.312;2022-09-09T06:51:35;23.60;56.00
45060;DHT22;30799;49.060;9.312;2022-09-09T06:54:03;23.60;56.00
45060;DHT22;30799;49.060;9.312;2022-09-09T06:56:31;23.60;56.10
45060;DHT22;30799;49.060;9.312;2022-09-09T06:59:00;23.60;56.10
45060;DHT22;30799;49.060;9.312;2022-09-09T07:01:32;23.60;56.10
45060;DHT22;30799;49.060;9.312;2022-09-09T07:04:00;23.60;56.10
45060;DHT22;30799;49.060;9.312;2022-09-09T07:06:31;23.60;56.10
45060;DHT22;30799;49.060;9.312;2022-09-09T07:09:03;23.60;56.10
45060;DHT22;30799;49.060;9.312;2022-09-09T07:11:31;23.60;56.10
45060;DHT22;30799;49.060;9.312;2022-09-09T07:13:59;23.60;56.10
45060;DHT22;30799;49.060;9.312;2022-09-09T07:16:26;23.60;56.10
45060;DHT22;30799;49.060;9.312;2022-09-09T07:18:54;23.60;56.10
45060;DHT22;30799;49.060;9.312;2022-09-09T07:21:28;23.60;56.70
45060;DHT22;30799;49.060;9.312;2022-09-09T07:23:56;23.60;56.10
45060;DHT22;30799;49.060;9.312;2022-09-09T07:26:25;23.60;56.10
45060;DHT22;30799;49.060;9.312;2022-09-09T07:28:52;23.60;56.10
45060;DHT22;30799;49.060;9.312;2022-09-09T07:31:26;23.60;56.10
45060;DHT22;30799;49.060;9.312;2022-09-09T07:33:53;23.60;56.10
45060;DHT22;30799;49.060;9.312;2022-09-09T07:36:23;23.60;56.10
45060;DHT22;30799;49.060;9.312;2022-09-09T07:38:53;23.60;56.10
45060;DHT22;30799;49.060;9.312;2022-09-09T07:41:21;23.60;56.10
45060;DHT22;30799;49.060;9.312;2022-09-09T07:43:49;23.60;56.10
45060;DHT22;30799;49.060;9.312;2022-09-09T07:46:17;23.60;56.10
45060;DHT22;30799;49.060;9.312;2022-09-09T07:48:47;23.60;56.10
45060;DHT22;30799;49.060;9.312;2022-09-09T07:51:19;23.60;56.10
45060;DHT22;30799;49.060;9.312;2022-09-09T07:53:51;23.60;56.20
45060;DHT22;30799;49.060;9.312;2022-09-09T07:56:18;23.60;56.10
45060;DHT22;30799;49.060;9.312;2022-09-09T07:58:46;23.60;56.20
45060;DHT22;30799;49.060;9.312;2022-09-09T08:01:17;23.60;56.20
45060;DHT22;30799;49.060;9.312;2022-09-09T08:03:45;23.70;56.20
45060;DHT22;30799;49.060;9.312;2022-09-09T08:06:13;23.60;56.20
45060;DHT22;30799;49.060;9.312;2022-09-09T08:08:40;23.70;56.20
45060;DHT22;30799;49.060;9.312;2022-09-09T08:11:13;23.70;56.30
45060;DHT22;30799;49.060;9.312;2022-09-09T08:13:42;23.70;56.20
45060;DHT22;30799;49.060;9.312;2022-09-09T08:16:12;23.60;56.30
45060;DHT22;30799;49.060;9.312;2022-09-09T08:18:39;23.70;56.30
45060;DHT22;30799;49.060;9.312;2022-09-09T08:21:14;23.70;56.20
45060;DHT22;30799;49.060;9.312;2022-09-09T08:23:41;23.60;56.30
45060;DHT22;30799;49.060;9.312;2022-09-09T08:26:14;23.70;56.30
45060;DHT22;30799;49.060;9.312;2022-09-09T08:28:42;23.70;56.20
45060;DHT22;30799;49.060;9.312;2022-09-09T08:31:14;23.70;56.20
45060;DHT22;30799;49.060;9.312;2022-09-09T08:33:42;23.60;56.20
45060;DHT22;30799;49.060;9.312;2022-09-09T08:36:13;23.70;56.30
45060;DHT22;30799;49.060;9.312;2022-09-09T08:38:42;23.70;56.30
45060;DHT22;30799;49.060;9.312;2022-09-09T08:43:50;23.70;56.40
45060;DHT22;30799;49.060;9.312;2022-09-09T08:46:26;23.70;56.30
45060;DHT22;30799;49.060;9.312;2022-09-09T08:49:05;23.70;56.30
45060;DHT22;30799;49.060;9.312;2022-09-09T08:51:34;23.70;56.40
45060;DHT22;30799;49.060;9.312;2022-09-09T08:54:02;23.70;56.40
45060;DHT22;30799;49.060;9.312;2022-09-09T08:56:32;23.60;56.30
45060;DHT22;30799;49.060;9.312;2022-09-09T08:59:00;23.70;56.40
45060;DHT22;30799;49.060;9.312;2022-09-09T09:07:52;23.60;56.30
45060;DHT22;30799;49.060;9.312;2022-09-09T09:10:09;23.60;56.30
45060;DHT22;30799;49.060;9.312;2022-09-09T09:12:58;23.60;56.30
45060;DHT22;30799;49.060;9.312;2022-09-09T09:15:33;23.60;56.30
45060;DHT22;30799;49.060;9.312;2022-09-09T09:18:07;23.70;56.30
45060;DHT22;30799;49.060;9.312;2022-09-09T09:21:08;23.70;56.40
45060;DHT22;30799;49.060;9.312;2022-09-09T09:24:05;23.70;56.40
45060;DHT22;30799;49.060;9.312;2022-09-09T09:26:35;23.70;56.40
45060;DHT22;30799;49.060;9.312;2022-09-09T09:29:11;23.70;56.30
45060;DHT22;30799;49.060;9.312;2022-09-09T09:31:38;23.70;56.30
45060;DHT22;30799;49.060;9.312;2022-09-09T09:34:05;23.70;56.30
45060;DHT22;30799;49.060;9.312;2022-09-09T09:36:45;23.70;56.30
45060;DHT22;30799;49.060;9.312;2022-09-09T09:39:30;23.70;56.40
45060;DHT22;30799;49.060;9.312;2022-09-09T09:42:18;23.70;56.30
45060;DHT22;30799;49.060;9.312;2022-09-09T09:44:49;23.70;56.40
45060;DHT22;30799;49.060;9.312;2022-09-09T09:47:20;23.70;56.40
45060;DHT22;30799;49.060;9.312;2022-09-09T09:49:57;23.70;56.30
45060;DHT22;30799;49.060;9.312;2022-09-09T09:52:30;23.70;56.30
45060;DHT22;30799;49.060;9.312;2022-09-09T09:54:58;23.70;56.40
45060;DHT22;30799;49.060;9.312;2022-09-09T09:57:33;23.70;56.30
45060;DHT22;30799;49.060;9.312;2022-09-09T10:00:16;23.70;56.30
45060;DHT22;30799;49.060;9.312;2022-09-09T10:02:46;23.70;56.30
45060;DHT22;30799;49.060;9.312;2022-09-09T10:05:16;23.70;56.30
45060;DHT22;30799;49.060;9.312;2022-09-09T10:08:11;23.70;56.30
45060;DHT22;30799;49.060;9.312;2022-09-09T10:11:18;23.70;56.40
45060;DHT22;30799;49.060;9.312;2022-09-09T10:19:10;23.70;56.00
45060;DHT22;30799;49.060;9.312;2022-09-09T10:30:36;23.70;56.10
45060;DHT22;30799;49.060;9.312;2022-09-09T10:36:21;23.70;56.10
45060;DHT22;30799;49.060;9.312;2022-09-09T10:38:54;23.70;56.20
45060;DHT22;30799;49.060;9.312;2022-09-09T10:57:44;23.70;56.20
45060;DHT22;30799;49.060;9.312;2022-09-09T11:00:24;23.70;56.20
45060;DHT22;30799;49.060;9.312;2022-09-09T11:03:04;23.70;56.30
45060;DHT22;30799;49.060;9.312;2022-09-09T11:05:43;23.70;56.30
45060;DHT22;30799;49.060;9.312;2022-09-09T11:08:18;23.70;56.30
45060;DHT22;30799;49.060;9.312;2022-09-09T11:19:36;23.70;56.20
45060;DHT22;30799;49.060;9.312;2022-09-09T11:22:16;23.70;56.30
45060;DHT22;30799;49.060;9.312;2022-09-09T11:24:49;23.70;56.30
45060;DHT22;30799;49.060;9.312;2022-09-09T11:30:20;23.70;56.30
45060;DHT22;30799;49.060;9.312;2022-09-09T11:38:49;23.70;56.30
45060;DHT22;30799;49.060;9.312;2022-09-09T11:41:19;23.70;56.30
45060;DHT22;30799;49.060;9.312;2022-09-09T11:43:52;23.70;56.30
45060;DHT22;30799;49.060;9.312;2022-09-09T11:46:32;23.70;56.30
45060;DHT22;30799;49.060;9.312;2022-09-09T11:49:02;23.70;56.30
45060;DHT22;30799;49.060;9.312;2022-09-09T11:51:31;23.70;56.30
45060;DHT22;30799;49.060;9.312;2022-09-09T11:54:00;23.70;56.40
45060;DHT22;30799;49.060;9.312;2022-09-09T11:56:43;23.70;56.40
45060;DHT22;30799;49.060;9.312;2022-09-09T11:59:25;23.70;56.40
45060;DHT22;30799;49.060;9.312;2022-09-09T12:01:57;23.70;56.30
45060;DHT22;30799;49.060;9.312;2022-09-09T12:06:55;23.70;56.40
45060;DHT22;30799;49.060;9.312;2022-09-09T12:11:52;23.70;56.40
45060;DHT22;30799;49.060;9.312;2022-09-09T12:17:20;23.70;56.40
45060;DHT22;30799;49.060;9.312;2022-09-09T12:20:10;23.70;56.40
45060;DHT22;30799;49.060;9.312;2022-09-09T12:28:11;23.70;56.30
45060;DHT22;30799;49.060;9.312;2022-09-09T12:33:19;23.70;56.30
45060;DHT22;30799;49.060;9.312;2022-09-09T12:35:53;23.70;56.30
45060;DHT22;30799;49.060;9.312;2022-09-09T12:38:32;23.70;56.30
45060;DHT22;30799;49.060;9.312;2022-09-09T12:41:00;23.70;56.20
45060;DHT22;30799;49.060;9.312;2022-09-09T12:43:28;23.70;56.20
45060;DHT22;30799;49.060;9.312;2022-09-09T12:45:58;23.70;56.30
45060;DHT22;30799;49.060;9.312;2022-09-09T12:48:45;23.70;56.20
45060;DHT22;30799;49.060;9.312;2022-09-09T12:51:24;23.70;56.20
45060;DHT22;30799;49.060;9.312;2022-09-09T12:53:52;23.70;56.20
45060;DHT22;30799;49.060;9.312;2022-09-09T12:56:21;23.70;56.20
45060;DHT22;30799;49.060;9.312;2022-09-09T12:58:50;23.70;56.20
45060;DHT22;30799;49.060;9.312;2022-09-09T13:01:25;23.70;56.30
45060;DHT22;30799;49.060;9.312;2022-09-09T13:03:52;23.70;56.20
45060;DHT22;30799;49.060;9.312;2022-09-09T13:06:25;23.70;56.20
45060;DHT22;30799;49.060;9.312;2022-09-09T13:08:56;23.70;56.20
45060;DHT22;30799;49.060;9.312;2022-09-09T13:11:29;23.70;56.20
45060;DHT22;30799;49.060;9.312;2022-09-09T13:13:57;23.70;56.20
45060;DHT22;30799;49.060;9.312;2022-09-09T13:16:33;23.70;56.20
45060;DHT22;30799;49.060;9.312;2022-09-09T13:19:15;23.70;56.20
45060;DHT22;30799;49.060;9.312;2022-09-09T13:21:43;23.70;56.20
45060;DHT22;30799;49.060;9.312;2022-09-09T13:24:31;23.70;56.20
45060;DHT22;30799;49.060;9.312;2022-09-09T13:27:28;23.70;56.30
45060;DHT22;30799;49.060;9.312;2022-09-09T13:29:56;23.70;56.20
45060;DHT22;30799;49.060;9.312;2022-09-09T13:32:25;23.70;56.20
45060;DHT22;30799;49.060;9.312;2022-09-09T13:34:58;23.70;56.20
45060;DHT22;30799;49.060;9.312;2022-09-09T13:37:37;23.70;56.20
45060;DHT22;30799;49.060;9.312;2022-09-09T13:40:06;23.70;56.20
45060;DHT22;30799;49.060;9.312;2022-09-09T13:42:37;23.70;56.20
45060;DHT22;30799;49.060;9.312;2022-09-09T13:45:05;23.70;56.20
45060;DHT22;30799;49.060;9.312;2022-09-09T13:47:34;23.70;56.20
45060;DHT22;30799;49.060;9.312;2022-09-09T13:50:26;23.70;56.20
45060;DHT22;30799;49.060;9.312;2022-09-09T13:52:59;23.70;56.20
45060;DHT22;30799;49.060;9.312;2022-09-09T13:55:27;23.70;56.20
45060;DHT22;30799;49.060;9.312;2022-09-09T13:57:57;23.70;56.10
45060;DHT22;30799;49.060;9.312;2022-09-09T14:00:24;23.70;56.20
45060;DHT22;30799;49.060;9.312;2022-09-09T14:02:51;23.70;56.20
45060;DHT22;30799;49.060;9.312;2022-09-09T14:05:19;23.70;56.20
45060;DHT22;30799;49.060;9.312;2022-09-09T14:07:45;23.70;56.20
45060;DHT22;30799;49.060;9.312;2022-09-09T14:10:19;23.80;56.30
45060;DHT22;30799;49.060;9.312;2022-09-09T14:12:45;23.70;56.20
45060;DHT22;30799;49.060;9.312;2022-09-09T14:15:13;23.70;56.20
45060;DHT22;30799;49.060;9.312;2022-09-09T14:17:40;23.70;56.20
45060;DHT22;30799;49.060;9.312;2022-09-09T14:20:07;23.70;56.20
45060;DHT22;30799;49.060;9.312;2022-09-09T14:22:36;23.70;56.20
45060;DHT22;30799;49.060;9.312;2022-09-09T14:25:03;23.70;56.20
45060;DHT22;30799;49.060;9.312;2022-09-09T14:27:30;23.80;56.20
45060;DHT22;30799;49.060;9.312;2022-09-09T14:29:57;23.80;56.20
45060;DHT22;30799;49.060;9.312;2022-09-09T14:32:24;23.80;56.20
45060;DHT22;30799;49.060;9.312;2022-09-09T14:34:50;23.70;56.10
45060;DHT22;30799;49.060;9.312;2022-09-09T14:37:19;23.70;56.10
45060;DHT22;30799;49.060;9.312;2022-09-09T14:39:46;23.80;56.20
45060;DHT22;30799;49.060;9.312;2022-09-09T14:42:15;23.70;56.20
45060;DHT22;30799;49.060;9.312;2022-09-09T14:44:41;23.80;56.20
45060;DHT22;30799;49.060;9.312;2022-09-09T14:47:08;23.80;56.10
45060;DHT22;30799;49.060;9.312;2022-09-09T14:49:35;23.70;56.00
45060;DHT22;30799;49.060;9.312;2022-09-09T14:52:03;23.80;56.00
45060;DHT22;30799;49.060;9.312;2022-09-09T14:54:30;23.80;56.00
45060;DHT22;30799;49.060;9.312;2022-09-09T14:56:57;23.70;55.90
45060;DHT22;30799;49.060;9.312;2022-09-09T14:59:24;23.70;56.10
45060;DHT22;30799;49.060;9.312;2022-09-09T15:01:51;23.70;56.00
45060;DHT22;30799;49.060;9.312;2022-09-09T15:04:17;23.70;56.00
45060;DHT22;30799;49.060;9.312;2022-09-09T15:06:44;23.70;56.00
45060;DHT22;30799;49.060;9.312;2022-09-09T15:09:14;23.80;56.00
45060;DHT22;30799;49.060;9.312;2022-09-09T15:11:41;23.70;56.00
45060;DHT22;30799;49.060;9.312;2022-09-09T15:14:09;23.70;55.90
45060;DHT22;30799;49.060;9.312;2022-09-09T15:16:36;23.70;55.90
45060;DHT22;30799;49.060;9.312;2022-09-09T15:19:03;23.70;55.90
45060;DHT22;30799;49.060;9.312;2022-09-09T15:21:32;23.70;55.90
45060;DHT22;30799;49.060;9.312;2022-09-09T15:23:59;23.70;56.00
45060;DHT22;30799;49.060;9.312;2022-09-09T15:26:28;23.80;56.10
45060;DHT22;30799;49.060;9.312;2022-09-09T15:28:56;23.70;56.00
45060;DHT22;30799;49.060;9.312;2022-09-09T15:31:30;23.70;56.00
45060;DHT22;30799;49.060;9.312;2022-09-09T15:33:59;23.80;56.10
45060;DHT22;30799;49.060;9.312;2022-09-09T15:36:29;23.80;56.00
45060;DHT22;30799;49.060;9.312;2022-09-09T15:38:59;23.80;56.00
45060;DHT22;30799;49.060;9.312;2022-09-09T15:41:27;23.70;55.90
45060;DHT22;30799;49.060;9.312;2022-09-09T15:43:55;23.70;56.00
45060;DHT22;30799;49.060;9.312;2022-09-09T15:46:34;23.80;56.00
45060;DHT22;30799;49.060;9.312;2022-09-09T15:49:06;23.80;56.10
45060;DHT22;30799;49.060;9.312;2022-09-09T15:51:33;23.80;56.10
45060;DHT22;30799;49.060;9.312;2022-09-09T15:54:11;23.70;56.00
45060;DHT22;30799;49.060;9.312;2022-09-09T15:56:39;23.80;56.00
45060;DHT22;30799;49.060;9.312;2022-09-09T15:59:07;23.80;56.10
45060;DHT22;30799;49.060;9.312;2022-09-09T16:01:34;23.70;56.00
45060;DHT22;30799;49.060;9.312;2022-09-09T16:04:02;23.70;56.00
45060;DHT22;30799;49.060;9.312;2022-09-09T16:06:29;23.80;56.00
45060;DHT22;30799;49.060;9.312;2022-09-09T16:08:57;23.80;56.00
45060;DHT22;30799;49.060;9.312;2022-09-09T16:11:33;23.80;56.00
45060;DHT22;30799;49.060;9.312;2022-09-09T16:14:00;23.80;56.10
45060;DHT22;30799;49.060;9.312;2022-09-09T16:16:29;23.80;56.10
45060;DHT22;30799;49.060;9.312;2022-09-09T16:18:58;23.70;56.00
45060;DHT22;30799;49.060;9.312;2022-09-09T16:21:33;23.80;56.00
45060;DHT22;30799;49.060;9.312;2022-09-09T16:24:02;23.80;56.10
45060;DHT22;30799;49.060;9.312;2022-09-09T16:26:32;23.80;56.10
45060;DHT22;30799;49.060;9.312;2022-09-09T16:28:59;23.80;56.00
45060;DHT22;30799;49.060;9.312;2022-09-09T16:31:28;23.80;56.00
45060;DHT22;30799;49.060;9.312;2022-09-09T16:33:55;23.80;56.00
45060;DHT22;30799;49.060;9.312;2022-09-09T16:36:24;23.70;56.00
45060;DHT22;30799;49.060;9.312;2022-09-09T16:38:58;23.80;56.10
45060;DHT22;30799;49.060;9.312;2022-09-09T16:41:27;23.80;56.00
45060;DHT22;30799;49.060;9.312;2022-09-09T16:43:55;23.80;56.00
45060;DHT22;30799;49.060;9.312;2022-09-09T16:46:22;23.80;56.00
45060;DHT22;30799;49.060;9.312;2022-09-09T16:48:51;23.80;56.00
45060;DHT22;30799;49.060;9.312;2022-09-09T16:51:24;23.80;56.00
45060;DHT22;30799;49.060;9.312;2022-09-09T16:53:52;23.70;55.90
45060;DHT22;30799;49.060;9.312;2022-09-09T16:56:21;23.80;56.00
45060;DHT22;30799;49.060;9.312;2022-09-09T16:58:51;23.70;56.60
45060;DHT22;30799;49.060;9.312;2022-09-09T17:01:18;23.70;56.00
45060;DHT22;30799;49.060;9.312;2022-09-09T17:03:45;23.70;55.90
45060;DHT22;30799;49.060;9.312;2022-09-09T17:06:13;23.70;55.90
45060;DHT22;30799;49.060;9.312;2022-09-09T17:08:41;23.70;56.00
45060;DHT22;30799;49.060;9.312;2022-09-09T17:11:18;23.70;56.00
45060;DHT22;30799;49.060;9.312;2022-09-09T17:13:46;23.70;56.00
45060;DHT22;30799;49.060;9.312;2022-09-09T17:16:15;23.70;56.00
45060;DHT22;30799;49.060;9.312;2022-09-09T17:18:42;23.70;56.00
45060;DHT22;30799;49.060;9.312;2022-09-09T17:21:13;23.70;56.00
45060;DHT22;30799;49.060;9.312;2022-09-09T17:23:41;23.70;56.00
45060;DHT22;30799;49.060;9.312;2022-09-09T17:26:10;23.70;56.00
45060;DHT22;30799;49.060;9.312;2022-09-09T17:28:38;23.70;56.00
45060;DHT22;30799;49.060;9.312;2022-09-09T17:31:09;23.70;56.00
45060;DHT22;30799;49.060;9.312;2022-09-09T17:33:39;23.70;56.00
45060;DHT22;30799;49.060;9.312;2022-09-09T17:36:11;23.70;56.00
45060;DHT22;30799;49.060;9.312;2022-09-09T17:38:39;23.70;56.00
45060;DHT22;30799;49.060;9.312;2022-09-09T17:41:06;23.70;56.00
45060;DHT22;30799;49.060;9.312;2022-09-09T17:43:34;23.70;56.00
45060;DHT22;30799;49.060;9.312;2022-09-09T17:46:28;23.70;56.00
45060;DHT22;30799;49.060;9.312;2022-09-09T17:48:58;23.70;56.00
45060;DHT22;30799;49.060;9.312;2022-09-09T17:51:27;23.70;56.00